< < Back
Terminal Aerodrome Forecast


Current Version              Previous Versions:   1  2  3  4  5  6  7  8  9  

Terminal Aerodrome Forecast

678
FTUS42 KFFC 201100
TAFMCN
TAF
KMCN 201125Z 2012/2112 27003KT 6SM BR FEW010
     FM201500 28006KT P6SM SCT025
     FM201800 29008KT P6SM VCSH SCT045
      TEMPO 2020/2024 VRB15G25KT 5SM -TSRA BKN030CB
     FM210200 28003KT P6SM FEW050=



Latest METAR

128
SAUS80 KWBC 202200 RRA
MTRMCN
METAR KMCN 202153Z 00000KT 10SM -RA BKN110 23/22 A3005 RMK AO2
TSE53RAE06B27 SLP170 P0001 T02330222


USA.gov is the U.S. government's official web portal to all federal, state and local government web resources and services.